レイキャビク/ケフラヴィーク の空港の天気 - METARとTAF

ケフラヴィーク国際空港 ( BIKF / KEF ) - アイスランド ケプラヴィーク
飛行場実況気象(Metar)
観測時間10/15 17:00 GMT (10/15 17:00 UTC)
風向・風速東北東 17m/s 瞬間風速23m/s
視程10km以上
天気現象弱い雨
少しの雲 雲底高度 730m
全天の8割程度の雲 雲底高度 1370m
気温10℃
湿度66%
気圧988hPa
METARBIKF 151700Z 07033G45KT 9999 -RA FEW024 BKN045 10/04 Q0988
過去の天気等 Google飛行場航空写真 Wunderground天気予報

過去48時間のMETAR

飛行場予報(TAF)
発表時間: 10/15 13:42 GMT (10/15 13:42 UTC)
予報対象時間: 15日15時 GMT ~ 16日15時 GMT
風向・風速東 11m/s 瞬間風速 16m/s
視程10km以上
天気現象弱い雨
全天の8割程度の雲 雲底高度 610m
全天を覆う雲 雲底高度 760m
15日21時 GMT ~ 15日23時 GMT に徐々に
風向・風速東北東 8m/s
TAF BIKF 151342Z 1515/1615 09022G32KT 9999 -RA BKN020 OVC025 TX10/1612Z TN08/1520Z
BECMG 1521/1523 07015KT